createdAt,value
2023-02-24T00:01:41.921Z,6.00
2023-02-24T00:04:10.627Z,5.90
2023-02-24T00:06:40.587Z,5.90
2023-02-24T00:09:11.942Z,5.90
2023-02-24T00:11:40.697Z,5.90
2023-02-24T00:14:12.575Z,5.90
2023-02-24T00:16:39.609Z,5.90
2023-02-24T00:19:09.134Z,5.80
2023-02-24T00:21:35.873Z,5.80
2023-02-24T00:24:03.425Z,5.80
2023-02-24T00:26:30.499Z,5.80
2023-02-24T00:29:00.147Z,5.70
2023-02-24T00:31:31.037Z,5.70
2023-02-24T00:33:58.906Z,5.70
2023-02-24T00:36:25.926Z,5.60
2023-02-24T00:38:57.480Z,5.60
2023-02-24T00:41:29.236Z,5.50
2023-02-24T00:44:06.112Z,5.40
2023-02-24T00:46:37.566Z,5.40
2023-02-24T00:49:05.629Z,5.40
2023-02-24T00:51:37.911Z,5.40
2023-02-24T00:54:05.391Z,5.30
2023-02-24T00:56:32.819Z,5.30
2023-02-24T00:58:59.869Z,5.30
2023-02-24T01:01:29.687Z,5.30
2023-02-24T01:03:56.703Z,5.30
2023-02-24T01:06:26.050Z,5.30
2023-02-24T01:08:53.503Z,5.30
2023-02-24T01:11:41.371Z,5.30
2023-02-24T01:14:19.085Z,5.30
2023-02-24T01:16:50.267Z,5.30
2023-02-24T01:19:21.669Z,5.30
2023-02-24T01:21:51.786Z,5.40
2023-02-24T01:24:18.460Z,5.40
2023-02-24T01:26:45.359Z,5.40
2023-02-24T01:29:12.016Z,5.40
2023-02-24T01:31:40.504Z,5.40
2023-02-24T01:34:07.244Z,5.40
2023-02-24T01:36:34.184Z,5.40
2023-02-24T01:39:00.972Z,5.40
2023-02-24T01:41:27.837Z,5.40
2023-02-24T01:43:58.919Z,5.50
2023-02-24T01:46:26.823Z,5.50
2023-02-24T01:48:55.599Z,5.50
2023-02-24T01:51:23.110Z,5.50
2023-02-24T01:53:49.757Z,5.50
2023-02-24T01:56:17.080Z,5.50
2023-02-24T01:58:43.753Z,5.50
2023-02-24T02:01:11.330Z,5.60
2023-02-24T02:03:39.543Z,5.50
2023-02-24T02:06:08.161Z,5.50
2023-02-24T02:08:38.961Z,5.50
2023-02-24T02:11:10.776Z,5.50
2023-02-24T02:13:39.375Z,5.50
2023-02-24T02:16:31.176Z,5.40
2023-02-24T02:19:18.899Z,5.40
2023-02-24T02:22:04.662Z,5.40
2023-02-24T02:24:42.573Z,5.40
2023-02-24T02:27:32.480Z,5.50
2023-02-24T02:30:14.216Z,5.50
2023-02-24T02:33:28.372Z,5.50
2023-02-24T02:36:12.533Z,5.40
2023-02-24T02:39:12.247Z,5.40
2023-02-24T02:41:43.412Z,5.40
2023-02-24T02:44:11.955Z,5.40
2023-02-24T02:46:44.476Z,5.30
2023-02-24T02:49:21.842Z,5.30
2023-02-24T02:51:53.808Z,5.30
2023-02-24T02:54:35.754Z,5.20
2023-02-24T02:57:08.759Z,5.20
2023-02-24T02:59:36.217Z,5.20
2023-02-24T03:02:14.686Z,5.10
2023-02-24T03:04:42.889Z,5.10
2023-02-24T03:07:09.760Z,5.10
2023-02-24T03:09:38.852Z,5.10
2023-02-24T03:12:08.558Z,5.00
2023-02-24T03:14:39.539Z,5.00
2023-02-24T03:17:09.469Z,5.00
2023-02-24T03:19:37.823Z,5.00
2023-02-24T03:22:14.884Z,5.00
2023-02-24T03:24:42.131Z,4.90
2023-02-24T03:27:20.008Z,4.90
2023-02-24T03:29:58.739Z,4.90
2023-02-24T03:32:33.532Z,4.90
2023-02-24T03:35:11.058Z,4.90
2023-02-24T03:37:37.771Z,4.80
2023-02-24T03:40:11.714Z,4.90
2023-02-24T03:42:40.128Z,5.00
2023-02-24T03:45:07.355Z,5.10
2023-02-24T03:47:34.069Z,5.10
2023-02-24T03:50:01.256Z,5.00
2023-02-24T03:52:33.497Z,5.00
2023-02-24T03:55:09.351Z,4.90
2023-02-24T03:58:02.382Z,4.80
2023-02-24T04:00:38.576Z,4.80
2023-02-24T04:03:25.617Z,4.60
2023-02-24T04:06:06.089Z,4.60
2023-02-24T04:08:42.354Z,4.60
2023-02-24T04:11:20.811Z,4.60
2023-02-24T04:13:52.320Z,4.70
2023-02-24T04:16:36.469Z,4.70
2023-02-24T04:19:07.719Z,5.00
2023-02-24T04:21:34.523Z,5.10
2023-02-24T04:24:06.203Z,5.00
2023-02-24T04:26:35.456Z,5.00
2023-02-24T04:29:03.302Z,5.10
2023-02-24T04:31:30.113Z,5.10
2023-02-24T04:33:56.839Z,5.10
2023-02-24T04:36:24.819Z,5.10
2023-02-24T04:38:52.136Z,5.10
2023-02-24T04:41:22.138Z,5.10
2023-02-24T04:43:50.822Z,5.20
2023-02-24T04:46:18.737Z,5.10
2023-02-24T04:48:45.615Z,5.10
2023-02-24T04:51:13.171Z,5.00
2023-02-24T04:53:39.909Z,5.00
2023-02-24T04:56:09.940Z,4.90
2023-02-24T04:58:37.813Z,4.90
2023-02-24T05:01:10.609Z,4.80
2023-02-24T05:03:37.989Z,4.80
2023-02-24T05:06:06.348Z,4.80
2023-02-24T05:08:33.267Z,4.70
2023-02-24T05:11:06.852Z,4.70
2023-02-24T05:13:33.863Z,4.70
2023-02-24T05:16:07.824Z,4.60
2023-02-24T05:18:37.235Z,4.50
2023-02-24T05:21:29.893Z,4.50
2023-02-24T05:23:58.373Z,4.40
2023-02-24T05:26:27.776Z,4.50
2023-02-24T05:28:56.474Z,4.90
2023-02-24T05:31:26.505Z,4.50
2023-02-24T05:33:54.922Z,4.70
2023-02-24T05:36:21.867Z,4.80
2023-02-24T05:38:49.555Z,4.70
2023-02-24T05:41:18.119Z,4.70
2023-02-24T05:43:52.964Z,4.70
2023-02-24T05:46:29.702Z,4.80
2023-02-24T05:48:57.110Z,4.90
2023-02-24T05:51:27.240Z,4.90
2023-02-24T05:53:56.735Z,4.90
2023-02-24T05:56:23.614Z,5.00
2023-02-24T05:59:01.774Z,5.00
2023-02-24T06:01:30.357Z,5.00
2023-02-24T06:04:05.634Z,5.00
2023-02-24T06:06:41.791Z,5.00
2023-02-24T06:09:11.036Z,4.90
2023-02-24T06:11:38.693Z,5.00
2023-02-24T06:14:07.158Z,4.90
2023-02-24T06:16:34.996Z,5.00
2023-02-24T06:19:01.769Z,5.00
2023-02-24T06:21:29.976Z,5.00
2023-02-24T06:24:00.810Z,5.00
2023-02-24T06:26:29.904Z,5.00
2023-02-24T06:28:59.594Z,5.00
2023-02-24T06:31:27.505Z,5.00
2023-02-24T06:33:54.295Z,5.00
2023-02-24T06:36:21.236Z,5.00
2023-02-24T06:38:49.406Z,5.10
2023-02-24T06:41:16.115Z,5.10
2023-02-24T06:43:44.738Z,5.00
2023-02-24T06:46:12.981Z,5.10
2023-02-24T06:48:39.782Z,5.10
2023-02-24T06:51:13.613Z,5.20
2023-02-24T06:53:43.223Z,5.20
2023-02-24T06:56:20.439Z,5.20
2023-02-24T06:58:52.146Z,5.30
2023-02-24T07:01:26.209Z,5.30
2023-02-24T07:04:02.527Z,5.30
2023-02-24T07:06:31.054Z,5.40
2023-02-24T07:08:58.258Z,5.40
2023-02-24T07:11:25.063Z,5.30
2023-02-24T07:13:54.476Z,5.30
2023-02-24T07:16:25.230Z,5.40
2023-02-24T07:18:56.661Z,5.30
2023-02-24T07:21:24.391Z,5.40
2023-02-24T07:23:58.586Z,5.50
2023-02-24T07:26:27.682Z,5.50
2023-02-24T07:28:58.084Z,5.50
2023-02-24T07:31:26.101Z,5.60
2023-02-24T07:33:57.372Z,5.60
2023-02-24T07:36:24.227Z,5.60
2023-02-24T07:38:54.524Z,5.70
2023-02-24T07:41:22.798Z,5.70
2023-02-24T07:43:53.636Z,5.80
2023-02-24T07:46:24.510Z,5.90
2023-02-24T07:48:55.025Z,5.90
2023-02-24T07:51:23.738Z,5.90
2023-02-24T07:53:56.723Z,5.90
2023-02-24T07:56:27.073Z,6.00
2023-02-24T07:58:59.246Z,5.90
2023-02-24T08:01:30.571Z,5.80
2023-02-24T08:04:01.254Z,5.80
2023-02-24T08:06:46.143Z,5.80
2023-02-24T08:09:18.624Z,5.80
2023-02-24T08:11:53.801Z,5.80
2023-02-24T08:14:24.190Z,5.80
2023-02-24T08:16:59.480Z,5.90
2023-02-24T08:19:33.500Z,5.90
2023-02-24T08:22:19.322Z,6.00
2023-02-24T08:24:54.005Z,6.10
2023-02-24T08:27:22.719Z,6.20
2023-02-24T08:30:03.035Z,6.20
2023-02-24T08:32:37.806Z,6.20
2023-02-24T08:35:06.941Z,6.40
2023-02-24T08:37:39.988Z,6.40
2023-02-24T08:40:09.091Z,6.30
2023-02-24T08:42:35.754Z,6.50
2023-02-24T08:45:02.505Z,6.40
2023-02-24T08:47:36.045Z,6.40
2023-02-24T08:50:07.043Z,6.50
2023-02-24T08:52:34.827Z,6.50
2023-02-24T08:55:01.774Z,6.60
2023-02-24T08:57:28.544Z,6.60
2023-02-24T08:59:57.967Z,6.70
2023-02-24T09:02:27.557Z,6.70
2023-02-24T09:04:55.282Z,6.70
2023-02-24T09:07:24.307Z,6.70
2023-02-24T09:09:51.085Z,6.90
2023-02-24T09:12:24.824Z,7.10
2023-02-24T09:15:01.072Z,7.20
2023-02-24T09:17:49.682Z,7.20
2023-02-24T09:20:25.920Z,7.30
2023-02-24T09:23:03.961Z,7.20
2023-02-24T09:25:40.963Z,7.20
2023-02-24T09:28:08.942Z,7.20
2023-02-24T09:30:37.769Z,7.30
2023-02-24T09:33:07.732Z,7.40
2023-02-24T09:35:36.985Z,7.40
2023-02-24T09:38:07.377Z,7.70
2023-02-24T09:40:40.322Z,7.80
2023-02-24T09:43:24.334Z,7.90
2023-02-24T09:46:16.314Z,8.00
2023-02-24T09:49:10.566Z,8.10
2023-02-24T09:51:42.332Z,8.10
2023-02-24T09:54:19.991Z,8.10
2023-02-24T09:57:08.420Z,8.20
2023-02-24T10:00:21.299Z,8.20
2023-02-24T10:03:03.768Z,8.20
2023-02-24T10:05:38.484Z,8.20
2023-02-24T10:08:08.284Z,8.30
2023-02-24T10:10:36.140Z,8.40
2023-02-24T10:13:17.538Z,8.50
2023-02-24T10:15:58.789Z,8.50
2023-02-24T10:18:35.335Z,8.60
2023-02-24T10:21:15.499Z,8.80
2023-02-24T10:23:56.497Z,9.00
2023-02-24T10:27:00.081Z,9.10
2023-02-24T10:29:50.917Z,9.00
2023-02-24T10:32:23.887Z,9.10
2023-02-24T10:34:51.716Z,9.60
2023-02-24T10:37:28.258Z,9.30
2023-02-24T10:39:57.320Z,9.30
2023-02-24T10:42:25.568Z,9.10
2023-02-24T10:45:01.347Z,9.20
2023-02-24T10:47:32.758Z,9.20
2023-02-24T10:50:01.197Z,9.20
2023-02-24T10:52:51.096Z,9.20
2023-02-24T10:55:28.952Z,9.20
2023-02-24T10:58:06.326Z,9.30
2023-02-24T11:01:06.648Z,9.40
2023-02-24T11:03:41.577Z,9.40
2023-02-24T11:06:38.116Z,9.50
2023-02-24T11:09:23.654Z,9.60
2023-02-24T11:12:09.047Z,9.60
2023-02-24T11:14:58.676Z,9.60
2023-02-24T11:17:28.281Z,9.70
2023-02-24T11:20:15.726Z,9.70
2023-02-24T11:22:43.152Z,9.60
2023-02-24T11:25:32.630Z,9.50
2023-02-24T11:27:59.286Z,9.60
2023-02-24T11:30:42.095Z,9.70
2023-02-24T11:33:36.714Z,9.80
2023-02-24T11:36:20.565Z,10.00
2023-02-24T11:39:08.365Z,10.10
2023-02-24T11:41:44.338Z,10.10
2023-02-24T11:44:46.744Z,10.20
2023-02-24T11:47:15.595Z,10.20
2023-02-24T11:50:20.136Z,10.30
2023-02-24T11:52:47.098Z,10.30
2023-02-24T11:55:27.387Z,10.20
2023-02-24T11:57:55.149Z,10.10
2023-02-24T12:00:24.788Z,10.10
2023-02-24T12:03:03.949Z,10.20
2023-02-24T12:05:37.203Z,10.20
2023-02-24T12:08:18.388Z,10.10
2023-02-24T12:11:11.330Z,10.10
2023-02-24T12:14:06.888Z,10.20
2023-02-24T12:16:36.429Z,10.20
2023-02-24T12:19:06.794Z,10.40
2023-02-24T12:21:39.368Z,10.50
2023-02-24T12:24:08.626Z,10.40
2023-02-24T12:27:02.669Z,10.50
2023-02-24T12:30:06.253Z,10.50
2023-02-24T12:32:49.935Z,10.40
2023-02-24T12:35:39.545Z,10.40
2023-02-24T12:38:32.645Z,10.50
2023-02-24T12:41:11.514Z,10.40
2023-02-24T12:43:58.886Z,10.50
2023-02-24T12:46:36.749Z,10.60
2023-02-24T12:49:42.680Z,10.70
2023-02-24T12:52:12.997Z,10.60
2023-02-24T12:54:54.623Z,10.50
2023-02-24T12:57:24.749Z,10.50
2023-02-24T12:59:51.408Z,10.60
2023-02-24T13:02:44.905Z,10.60
2023-02-24T13:05:48.638Z,10.50
2023-02-24T13:08:16.712Z,10.40
2023-02-24T13:11:10.264Z,10.30
2023-02-24T13:13:52.313Z,10.30
2023-02-24T13:16:28.683Z,10.70
2023-02-24T13:19:07.667Z,10.40
2023-02-24T13:21:34.417Z,10.50
2023-02-24T13:24:01.963Z,10.40
2023-02-24T13:26:32.104Z,10.50
2023-02-24T13:29:12.776Z,10.50
2023-02-24T13:31:45.192Z,10.50
2023-02-24T13:34:34.128Z,10.50
2023-02-24T13:37:00.843Z,10.60
2023-02-24T13:39:35.528Z,10.60
2023-02-24T13:42:25.141Z,10.50
2023-02-24T13:45:10.359Z,10.40
2023-02-24T13:48:01.632Z,10.30
2023-02-24T13:50:55.937Z,10.20
2023-02-24T13:53:40.987Z,10.20
2023-02-24T13:56:34.175Z,10.20
2023-02-24T13:59:26.118Z,10.10
2023-02-24T14:02:19.327Z,10.20
2023-02-24T14:04:51.089Z,10.10
2023-02-24T14:07:23.681Z,10.10
2023-02-24T14:09:56.695Z,10.20
2023-02-24T14:12:27.857Z,10.20
2023-02-24T14:14:54.637Z,10.30
2023-02-24T14:17:28.900Z,10.30
2023-02-24T14:20:20.361Z,10.40
2023-02-24T14:22:54.791Z,10.40
2023-02-24T14:25:29.452Z,10.40
2023-02-24T14:27:56.434Z,10.40
2023-02-24T14:30:23.323Z,10.30
2023-02-24T14:32:50.106Z,10.10
2023-02-24T14:35:34.025Z,10.10
2023-02-24T14:38:02.267Z,10.00
2023-02-24T14:40:29.282Z,10.00
2023-02-24T14:42:57.216Z,10.00
2023-02-24T14:45:26.199Z,9.70
2023-02-24T14:47:53.730Z,10.00
2023-02-24T14:50:24.405Z,10.00
2023-02-24T14:53:09.899Z,10.00
2023-02-24T14:55:37.692Z,10.00
2023-02-24T14:58:24.388Z,10.00
2023-02-24T15:01:00.238Z,10.00
2023-02-24T15:03:29.451Z,10.00
2023-02-24T15:05:58.222Z,10.00
2023-02-24T15:08:35.697Z,10.00
2023-02-24T15:11:08.614Z,10.10
2023-02-24T15:13:35.260Z,10.10
2023-02-24T15:16:27.718Z,10.00
2023-02-24T15:18:56.225Z,9.90
2023-02-24T15:21:33.826Z,10.10
2023-02-24T15:24:05.203Z,10.00
2023-02-24T15:26:35.104Z,10.00
2023-02-24T15:29:04.275Z,10.00
2023-02-24T15:31:31.101Z,10.10
2023-02-24T15:34:00.303Z,10.10
2023-02-24T15:36:34.778Z,10.00
2023-02-24T15:39:06.659Z,10.00
2023-02-24T15:41:44.649Z,10.00
2023-02-24T15:44:29.912Z,10.10
2023-02-24T15:46:57.539Z,10.00
2023-02-24T15:49:24.482Z,10.10
2023-02-24T15:51:52.558Z,9.90
2023-02-24T15:54:30.725Z,9.90
2023-02-24T15:57:01.331Z,9.90
2023-02-24T15:59:28.248Z,9.80
2023-02-24T16:01:55.070Z,9.80
2023-02-24T16:04:22.451Z,9.80
2023-02-24T16:06:54.898Z,9.70
2023-02-24T16:09:24.173Z,9.60
2023-02-24T16:11:50.921Z,9.70
2023-02-24T16:14:17.968Z,9.60
2023-02-24T16:16:44.973Z,9.50
2023-02-24T16:19:14.173Z,9.50
2023-02-24T16:21:40.852Z,9.50
2023-02-24T16:24:07.531Z,9.50
2023-02-24T16:26:36.178Z,9.50
2023-02-24T16:29:02.835Z,9.40
2023-02-24T16:31:29.725Z,9.30
2023-02-24T16:33:58.442Z,9.30
2023-02-24T16:36:25.777Z,9.30
2023-02-24T16:38:52.740Z,9.20
2023-02-24T16:41:19.675Z,9.20
2023-02-24T16:43:46.466Z,9.20
2023-02-24T16:46:18.002Z,9.10
2023-02-24T16:48:45.696Z,9.10
2023-02-24T16:51:12.524Z,9.10
2023-02-24T16:53:39.199Z,9.10
2023-02-24T16:56:07.603Z,9.10
2023-02-24T16:58:34.396Z,9.00
2023-02-24T17:01:02.782Z,9.00
2023-02-24T17:03:42.405Z,9.00
2023-02-24T17:06:09.099Z,9.00
2023-02-24T17:08:35.823Z,9.00
2023-02-24T17:11:02.824Z,8.90
2023-02-24T17:13:29.534Z,8.90
2023-02-24T17:15:57.315Z,8.90
2023-02-24T17:18:24.674Z,9.00
2023-02-24T17:20:51.655Z,8.90
2023-02-24T17:23:18.481Z,8.90
2023-02-24T17:25:45.174Z,8.90
2023-02-24T17:28:11.872Z,8.90
2023-02-24T17:30:39.527Z,8.90
2023-02-24T17:33:06.268Z,8.90
2023-02-24T17:35:32.931Z,8.90
2023-02-24T17:37:59.596Z,9.00
2023-02-24T17:40:26.382Z,8.90
2023-02-24T17:42:53.034Z,8.90
2023-02-24T17:45:19.943Z,8.80
2023-02-24T17:47:46.629Z,8.90
2023-02-24T17:50:13.659Z,8.90
2023-02-24T17:52:40.501Z,8.90
2023-02-24T17:55:07.991Z,8.80
2023-02-24T17:57:35.168Z,8.80
2023-02-24T18:00:02.218Z,8.80
2023-02-24T18:02:29.026Z,8.80
2023-02-24T18:04:55.823Z,8.80
2023-02-24T18:07:22.554Z,8.80
2023-02-24T18:09:49.207Z,8.80
2023-02-24T18:12:18.575Z,9.10
2023-02-24T18:14:45.531Z,8.70
2023-02-24T18:17:12.428Z,8.70
2023-02-24T18:19:39.089Z,8.80
2023-02-24T18:22:06.017Z,8.80
2023-02-24T18:24:34.378Z,8.80
2023-02-24T18:27:03.137Z,8.80
2023-02-24T18:29:30.318Z,8.80
2023-02-24T18:31:57.546Z,8.80
2023-02-24T18:34:25.186Z,8.80
2023-02-24T18:36:51.999Z,8.70
2023-02-24T18:39:18.704Z,8.60
2023-02-24T18:41:45.514Z,8.50
2023-02-24T18:44:12.361Z,8.30
2023-02-24T18:46:39.094Z,8.00
2023-02-24T18:49:07.061Z,7.90
2023-02-24T18:51:33.825Z,7.70
2023-02-24T18:54:00.635Z,7.60
2023-02-24T18:56:28.148Z,7.60
2023-02-24T18:58:56.287Z,7.50
2023-02-24T19:01:42.304Z,7.50
2023-02-24T19:04:09.205Z,7.40
2023-02-24T19:06:37.379Z,7.40
2023-02-24T19:09:09.911Z,7.30
2023-02-24T19:11:37.093Z,7.30
2023-02-24T19:14:04.272Z,7.30
2023-02-24T19:16:31.593Z,7.20
2023-02-24T19:18:58.489Z,7.20
2023-02-24T19:21:25.892Z,7.20
2023-02-24T19:23:52.790Z,7.10
2023-02-24T19:26:21.608Z,7.10
2023-02-24T19:28:48.746Z,7.00
2023-02-24T19:31:17.718Z,7.10
2023-02-24T19:33:44.600Z,7.10
2023-02-24T19:36:11.530Z,7.00
2023-02-24T19:38:40.581Z,7.00
2023-02-24T19:41:07.225Z,7.10
2023-02-24T19:43:34.013Z,7.10
2023-02-24T19:46:06.209Z,7.00
2023-02-24T19:48:33.915Z,7.00
2023-02-24T19:51:14.644Z,7.00
2023-02-24T19:53:41.512Z,7.00
2023-02-24T19:56:08.272Z,7.00
2023-02-24T19:58:35.891Z,7.00
2023-02-24T20:01:10.537Z,7.00
2023-02-24T20:03:38.183Z,7.00
2023-02-24T20:06:05.184Z,6.90
2023-02-24T20:08:32.027Z,6.90
2023-02-24T20:11:00.260Z,6.90
2023-02-24T20:13:27.133Z,6.80
2023-02-24T20:15:54.997Z,6.70
2023-02-24T20:18:21.905Z,6.70
2023-02-24T20:20:48.928Z,6.70
2023-02-24T20:23:15.788Z,6.70
2023-02-24T20:25:53.506Z,6.60
2023-02-24T20:28:21.302Z,6.60
2023-02-24T20:30:48.966Z,6.60
2023-02-24T20:33:16.326Z,6.50
2023-02-24T20:35:42.986Z,6.50
2023-02-24T20:38:09.779Z,6.40
2023-02-24T20:40:36.903Z,6.40
2023-02-24T20:43:04.833Z,6.40
2023-02-24T20:45:32.242Z,6.40
2023-02-24T20:47:59.131Z,6.30
2023-02-24T20:50:26.287Z,6.30
2023-02-24T20:52:53.122Z,6.30
2023-02-24T20:55:20.014Z,6.30
2023-02-24T20:57:46.882Z,6.20
2023-02-24T21:00:15.464Z,6.20
2023-02-24T21:02:42.467Z,6.20
2023-02-24T21:05:10.472Z,6.20
2023-02-24T21:07:38.139Z,6.20
2023-02-24T21:10:05.690Z,6.10
2023-02-24T21:12:32.525Z,6.10
2023-02-24T21:14:59.269Z,6.00
2023-02-24T21:17:26.122Z,6.10
2023-02-24T21:19:53.018Z,6.00
2023-02-24T21:22:19.691Z,6.00
2023-02-24T21:24:46.518Z,6.00
2023-02-24T21:27:13.167Z,6.00
2023-02-24T21:29:39.988Z,6.00
2023-02-24T21:32:06.767Z,5.90
2023-02-24T21:34:33.770Z,5.90
2023-02-24T21:37:01.648Z,6.80
2023-02-24T21:39:28.336Z,5.80
2023-02-24T21:41:55.304Z,5.70
2023-02-24T21:44:22.235Z,6.70
2023-02-24T21:46:49.622Z,5.60
2023-02-24T21:49:19.465Z,5.60
2023-02-24T21:51:46.155Z,5.60
2023-02-24T21:54:14.241Z,5.60
2023-02-24T21:56:40.992Z,5.50
2023-02-24T21:59:09.040Z,5.50
2023-02-24T22:01:40.880Z,5.50
2023-02-24T22:04:12.510Z,5.50
2023-02-24T22:06:39.740Z,5.40
2023-02-24T22:09:07.529Z,5.40
2023-02-24T22:11:36.603Z,5.40
2023-02-24T22:14:03.847Z,5.40
2023-02-24T22:16:30.598Z,5.30
2023-02-24T22:18:57.484Z,5.30
2023-02-24T22:21:26.442Z,5.30
2023-02-24T22:23:54.438Z,5.30
2023-02-24T22:26:23.676Z,5.20
2023-02-24T22:28:50.673Z,5.20
2023-02-24T22:31:19.214Z,4.90
2023-02-24T22:33:46.306Z,4.40
2023-02-24T22:36:14.769Z,4.10
2023-02-24T22:38:41.682Z,3.90
2023-02-24T22:41:13.120Z,3.80
2023-02-24T22:43:39.882Z,3.70
2023-02-24T22:46:08.393Z,3.60
2023-02-24T22:48:35.874Z,3.70
2023-02-24T22:51:03.425Z,3.70
2023-02-24T22:53:30.715Z,3.60
2023-02-24T22:55:57.619Z,3.70
2023-02-24T22:58:24.369Z,3.60
2023-02-24T23:00:51.638Z,3.70
2023-02-24T23:03:20.110Z,3.70
2023-02-24T23:06:06.987Z,3.70
2023-02-24T23:08:35.698Z,3.70
2023-02-24T23:11:12.078Z,3.70
2023-02-24T23:13:39.179Z,3.70
2023-02-24T23:16:07.954Z,3.70
2023-02-24T23:18:34.711Z,3.70
2023-02-24T23:21:03.332Z,3.70
2023-02-24T23:23:30.642Z,3.70
2023-02-24T23:25:57.459Z,3.70
2023-02-24T23:28:25.201Z,3.60
2023-02-24T23:30:52.296Z,3.60
2023-02-24T23:33:19.227Z,3.50
2023-02-24T23:35:46.714Z,3.50
2023-02-24T23:38:13.454Z,3.50
2023-02-24T23:40:49.587Z,3.50
2023-02-24T23:43:16.949Z,3.50
2023-02-24T23:45:44.395Z,3.50
2023-02-24T23:48:12.137Z,3.50
2023-02-24T23:50:39.219Z,3.60
2023-02-24T23:53:05.971Z,3.60
2023-02-24T23:55:35.856Z,3.60
2023-02-24T23:58:03.210Z,3.50
